createdAt,value
2018-02-05T00:02:30.172Z,0.20
2018-02-05T00:05:01.248Z,0.10
2018-02-05T00:07:29.531Z,0.10
2018-02-05T00:10:02.993Z,0.10
2018-02-05T00:12:31.106Z,0.20
2018-02-05T00:15:07.078Z,0.30
2018-02-05T00:20:54.009Z,0.30
2018-02-05T00:23:32.523Z,0.40
2018-02-05T00:26:08.387Z,0.40
2018-02-05T00:28:49.526Z,0.50
2018-02-05T00:31:17.688Z,0.50
2018-02-05T00:33:50.077Z,0.60
2018-02-05T00:36:18.292Z,0.70
2018-02-05T00:38:50.796Z,0.70
2018-02-05T00:41:20.004Z,0.70
2018-02-05T00:43:53.416Z,0.70
2018-02-05T00:46:36.977Z,0.70
2018-02-05T00:49:05.103Z,0.70
2018-02-05T00:51:33.213Z,0.80
2018-02-05T00:56:46.943Z,0.80
2018-02-05T00:59:15.031Z,0.80
2018-02-05T01:01:59.875Z,0.80
2018-02-05T01:07:27.396Z,0.90
2018-02-05T01:09:55.544Z,0.90
2018-02-05T01:12:23.739Z,0.90
2018-02-05T01:14:52.696Z,0.90
2018-02-05T01:20:02.548Z,0.90
2018-02-05T01:22:30.715Z,0.90
2018-02-05T01:24:59.747Z,0.90
2018-02-05T01:27:28.521Z,0.90
2018-02-05T01:30:02.330Z,0.90
2018-02-05T01:32:30.559Z,0.90
2018-02-05T01:35:10.874Z,0.90
2018-02-05T01:37:44.921Z,1.00
2018-02-05T01:40:15.700Z,1.00
2018-02-05T01:42:49.294Z,0.90
2018-02-05T01:45:25.155Z,0.90
2018-02-05T01:47:53.917Z,1.00
2018-02-05T01:50:30.179Z,0.90
2018-02-05T01:52:58.317Z,0.90
2018-02-05T01:55:27.332Z,0.90
2018-02-05T01:57:55.477Z,0.90
2018-02-05T02:00:27.520Z,0.90
2018-02-05T02:02:55.738Z,0.90
2018-02-05T02:05:24.035Z,0.90
2018-02-05T02:07:53.188Z,0.90
2018-02-05T02:10:25.976Z,0.90
2018-02-05T02:12:59.875Z,0.80
2018-02-05T02:15:29.115Z,0.90
2018-02-05T02:18:04.235Z,0.80
2018-02-05T02:20:51.969Z,0.90
2018-02-05T02:23:24.824Z,0.80
2018-02-05T02:25:55.011Z,0.80
2018-02-05T02:28:30.533Z,0.80
2018-02-05T02:30:59.686Z,0.80
2018-02-05T02:33:27.847Z,0.80
2018-02-05T02:35:56.801Z,0.80
2018-02-05T02:38:24.963Z,0.70
2018-02-05T02:40:57.178Z,0.80
2018-02-05T02:43:31.022Z,0.70
2018-02-05T02:46:09.259Z,0.80
2018-02-05T02:48:51.214Z,0.80
2018-02-05T02:51:20.144Z,0.80
2018-02-05T02:56:42.804Z,0.80
2018-02-05T02:59:10.928Z,0.80
2018-02-05T03:04:44.419Z,0.80
2018-02-05T03:07:13.463Z,0.70
2018-02-05T03:09:41.607Z,0.70
2018-02-05T03:12:12.992Z,0.70
2018-02-05T03:14:46.890Z,0.70
2018-02-05T03:17:17.212Z,0.70
2018-02-05T03:19:52.755Z,0.70
2018-02-05T03:22:33.380Z,0.70
2018-02-05T03:25:17.314Z,0.60
2018-02-05T03:27:51.853Z,0.60
2018-02-05T03:30:21.014Z,0.60
2018-02-05T03:35:50.249Z,0.60
2018-02-05T03:38:31.240Z,0.60
2018-02-05T03:41:00.657Z,0.60
2018-02-05T03:43:32.649Z,0.60
2018-02-05T03:46:00.785Z,0.60
2018-02-05T03:48:29.791Z,0.60
2018-02-05T03:50:57.911Z,0.60
2018-02-05T03:53:38.581Z,0.60
2018-02-05T03:56:06.958Z,0.60
2018-02-05T03:58:42.044Z,0.60
2018-02-05T04:01:10.476Z,0.60
2018-02-05T04:03:38.624Z,0.60
2018-02-05T04:06:23.501Z,0.60
2018-02-05T04:09:03.575Z,0.60
2018-02-05T04:11:34.822Z,0.60
2018-02-05T04:14:18.885Z,0.60
2018-02-05T04:16:50.518Z,0.60
2018-02-05T04:19:18.751Z,0.60
2018-02-05T04:21:46.939Z,0.50
2018-02-05T04:24:15.019Z,0.50
2018-02-05T04:26:49.203Z,0.50
2018-02-05T04:29:17.310Z,0.40
2018-02-05T04:31:45.437Z,0.40
2018-02-05T04:34:13.576Z,0.40
2018-02-05T04:36:52.608Z,0.40
2018-02-05T04:39:30.218Z,0.40
2018-02-05T04:41:58.425Z,0.40
2018-02-05T04:47:13.292Z,0.40
2018-02-05T04:49:42.448Z,0.40
2018-02-05T04:52:11.511Z,0.50
2018-02-05T04:54:40.906Z,0.50
2018-02-05T04:57:12.159Z,0.50
2018-02-05T04:59:40.752Z,0.50
2018-02-05T05:02:08.952Z,0.60
2018-02-05T05:04:40.553Z,0.50
2018-02-05T05:07:18.781Z,0.50
2018-02-05T05:09:55.856Z,0.50
2018-02-05T05:12:24.317Z,0.50
2018-02-05T05:14:52.423Z,0.50
2018-02-05T05:17:22.809Z,0.50
2018-02-05T05:20:01.144Z,0.50
2018-02-05T05:22:30.106Z,0.50
2018-02-05T05:25:10.018Z,0.40
2018-02-05T05:27:38.476Z,0.40
2018-02-05T05:30:20.779Z,0.40
2018-02-05T05:32:48.870Z,0.40
2018-02-05T05:35:16.985Z,0.40
2018-02-05T05:37:51.342Z,0.40
2018-02-05T05:40:19.692Z,0.40
2018-02-05T05:42:57.553Z,0.40
2018-02-05T05:45:27.826Z,0.40
2018-02-05T05:47:56.700Z,0.30
2018-02-05T05:50:24.992Z,0.20
2018-02-05T05:52:53.159Z,0.20
2018-02-05T05:55:23.276Z,0.20
2018-02-05T05:57:51.370Z,0.20
2018-02-05T06:00:30.834Z,0.30
2018-02-05T06:02:58.963Z,0.30
2018-02-05T06:05:27.090Z,0.40
2018-02-05T06:08:06.700Z,0.40
2018-02-05T06:10:34.825Z,0.40
2018-02-05T06:13:02.965Z,0.40
2018-02-05T06:15:31.052Z,0.40
2018-02-05T06:17:59.690Z,0.40
2018-02-05T06:20:29.805Z,0.30
2018-02-05T06:22:59.859Z,0.30
2018-02-05T06:25:28.125Z,0.30
2018-02-05T06:27:57.284Z,0.30
2018-02-05T06:30:46.227Z,0.30
2018-02-05T06:33:14.516Z,0.30
2018-02-05T06:35:50.036Z,0.30
2018-02-05T06:38:20.124Z,0.40
2018-02-05T06:40:48.223Z,0.30
2018-02-05T06:43:22.288Z,0.30
2018-02-05T06:45:51.354Z,0.30
2018-02-05T06:48:20.728Z,0.40
2018-02-05T06:51:04.148Z,0.40
2018-02-05T06:53:46.340Z,0.40
2018-02-05T06:56:23.428Z,0.40
2018-02-05T06:58:52.415Z,0.40
2018-02-05T07:01:26.930Z,0.40
2018-02-05T07:03:55.703Z,0.40
2018-02-05T07:06:27.573Z,0.50
2018-02-05T07:08:55.834Z,0.50
2018-02-05T07:11:25.971Z,0.50
2018-02-05T07:13:54.095Z,0.50
2018-02-05T07:16:23.610Z,0.50
2018-02-05T07:18:52.281Z,0.50
2018-02-05T07:21:27.832Z,0.40
2018-02-05T07:23:55.931Z,0.40
2018-02-05T07:26:25.027Z,0.40
2018-02-05T07:28:53.355Z,0.30
2018-02-05T07:31:21.695Z,0.20
2018-02-05T07:33:54.474Z,0.20
2018-02-05T07:36:22.631Z,0.20
2018-02-05T07:38:50.865Z,0.10
2018-02-05T07:41:28.887Z,0.10
2018-02-05T07:43:58.903Z,0.10
2018-02-05T07:46:31.347Z,0.00
2018-02-05T07:49:00.436Z,0.10
2018-02-05T07:51:29.717Z,0.10
2018-02-05T07:54:00.089Z,0.20
2018-02-05T07:56:28.186Z,0.20
2018-02-05T07:59:00.623Z,0.10
2018-02-05T08:01:29.500Z,0.10
2018-02-05T08:04:02.386Z,0.00
2018-02-05T08:06:30.512Z,-0.10
2018-02-05T08:09:04.564Z,-0.20
2018-02-05T08:11:32.747Z,-0.20
2018-02-05T08:14:01.338Z,-0.30
2018-02-05T08:16:29.570Z,-0.30
2018-02-05T08:19:02.383Z,-0.40
2018-02-05T08:21:42.307Z,-0.40
2018-02-05T08:24:10.427Z,-0.40
2018-02-05T08:26:38.542Z,-0.30
2018-02-05T08:29:06.696Z,-0.30
2018-02-05T08:31:43.084Z,-0.30
2018-02-05T08:34:11.303Z,-0.30
2018-02-05T08:36:40.592Z,-0.30
2018-02-05T08:41:42.484Z,-0.20
2018-02-05T08:44:16.797Z,-0.10
2018-02-05T08:46:45.061Z,-0.10
2018-02-05T08:49:15.341Z,-0.10
2018-02-05T08:51:43.487Z,-0.10
2018-02-05T08:54:12.672Z,0.00
2018-02-05T08:56:44.062Z,0.00
2018-02-05T08:59:12.236Z,0.00
2018-02-05T09:06:51.435Z,0.60
2018-02-05T09:09:19.977Z,0.80
2018-02-05T09:11:49.560Z,0.90
2018-02-05T09:14:30.424Z,1.00
2018-02-05T09:16:58.750Z,1.00
2018-02-05T09:19:26.931Z,1.00
2018-02-05T09:24:50.952Z,0.90
2018-02-05T09:27:19.860Z,0.80
2018-02-05T09:30:01.335Z,0.80
2018-02-05T09:32:35.163Z,0.80
2018-02-05T09:35:23.183Z,0.90
2018-02-05T09:37:51.472Z,1.00
2018-02-05T09:40:19.936Z,1.10
2018-02-05T09:42:48.193Z,1.20
2018-02-05T09:45:18.225Z,1.20
2018-02-05T09:48:00.357Z,1.30
2018-02-05T09:50:33.190Z,1.30
2018-02-05T09:53:24.357Z,1.30
2018-02-05T09:55:57.435Z,1.30
2018-02-05T09:58:26.043Z,1.10
2018-02-05T10:00:56.105Z,1.00
2018-02-05T10:03:26.892Z,1.00
2018-02-05T10:05:57.381Z,1.00
2018-02-05T10:08:25.591Z,0.90
2018-02-05T10:10:53.707Z,0.80
2018-02-05T10:13:23.331Z,0.90
2018-02-05T10:15:51.461Z,0.80
2018-02-05T10:18:19.713Z,0.90
2018-02-05T10:20:48.166Z,0.90
2018-02-05T10:23:22.939Z,1.00
2018-02-05T10:25:51.246Z,1.00
2018-02-05T10:28:35.326Z,1.00
2018-02-05T10:31:04.315Z,1.00
2018-02-05T10:33:32.467Z,1.10
2018-02-05T10:36:02.637Z,1.10
2018-02-05T10:38:32.699Z,1.00
2018-02-05T10:41:01.108Z,1.00
2018-02-05T10:43:31.284Z,1.10
2018-02-05T10:45:59.482Z,1.10
2018-02-05T10:48:27.695Z,1.10
2018-02-05T10:51:00.690Z,1.10
2018-02-05T10:53:33.143Z,1.20
2018-02-05T10:59:11.432Z,1.30
2018-02-05T11:01:41.097Z,1.40
2018-02-05T11:04:09.600Z,1.50
2018-02-05T11:06:39.729Z,1.60
2018-02-05T11:09:08.110Z,1.70
2018-02-05T11:11:36.256Z,1.70
2018-02-05T11:14:05.776Z,1.80
2018-02-05T11:16:37.650Z,1.90
2018-02-05T11:19:05.773Z,2.20
2018-02-05T11:21:34.126Z,2.30
2018-02-05T11:27:06.417Z,2.50
2018-02-05T11:29:49.106Z,2.70
2018-02-05T11:32:17.286Z,2.60
2018-02-05T11:34:47.754Z,2.40
2018-02-05T11:37:17.817Z,2.40
2018-02-05T11:40:01.530Z,2.50
2018-02-05T11:45:39.445Z,2.90
2018-02-05T11:48:25.396Z,3.10
2018-02-05T11:53:53.075Z,3.30
2018-02-05T11:56:34.731Z,3.30
2018-02-05T12:02:13.255Z,3.10
2018-02-05T12:04:44.085Z,3.10
2018-02-05T12:13:56.102Z,3.20
2018-02-05T12:16:25.449Z,3.20
2018-02-05T12:18:53.962Z,3.20
2018-02-05T12:21:43.036Z,3.00
2018-02-05T12:27:25.277Z,2.70
2018-02-05T12:33:03.590Z,2.50
2018-02-05T12:35:56.229Z,2.60
2018-02-05T12:41:28.993Z,2.60
2018-02-05T12:43:57.317Z,2.70
2018-02-05T12:46:25.540Z,2.70
2018-02-05T12:48:53.670Z,2.70
2018-02-05T12:51:22.859Z,2.70
2018-02-05T12:57:08.185Z,2.70
2018-02-05T12:59:36.409Z,2.80
2018-02-05T13:02:05.525Z,2.80
2018-02-05T13:07:27.882Z,2.80
2018-02-05T13:10:00.958Z,2.70
2018-02-05T13:12:29.178Z,2.70
2018-02-05T13:15:00.895Z,2.60
2018-02-05T13:20:48.624Z,2.50
2018-02-05T13:26:07.468Z,2.40
2018-02-05T13:28:49.891Z,2.40
2018-02-05T13:31:18.111Z,2.30
2018-02-05T13:33:51.542Z,2.30
2018-02-05T13:36:23.745Z,2.40
2018-02-05T13:38:51.888Z,2.50
2018-02-05T13:44:20.130Z,2.60
2018-02-05T13:49:58.467Z,2.70
2018-02-05T13:55:52.384Z,2.70
2018-02-05T13:58:22.082Z,2.60
2018-02-05T14:00:52.393Z,2.50
2018-02-05T14:06:19.850Z,2.50
2018-02-05T14:09:02.662Z,2.40
2018-02-05T14:17:16.700Z,2.40
2018-02-05T14:26:00.843Z,2.30
2018-02-05T14:31:29.477Z,2.30
2018-02-05T14:33:58.291Z,2.30
2018-02-05T14:36:29.733Z,2.20
2018-02-05T14:39:01.336Z,2.20
2018-02-05T14:41:48.313Z,2.20
2018-02-05T14:44:18.200Z,2.30
2018-02-05T14:47:00.595Z,2.20
2018-02-05T14:52:39.896Z,2.20
2018-02-05T14:58:02.794Z,2.10
2018-02-05T15:00:31.000Z,2.10
2018-02-05T15:03:18.283Z,2.00
2018-02-05T15:05:46.489Z,2.00
2018-02-05T15:08:15.595Z,1.90
2018-02-05T15:10:43.762Z,1.90
2018-02-05T15:13:11.948Z,1.90
2018-02-05T15:15:41.706Z,1.80
2018-02-05T15:18:29.721Z,1.80
2018-02-05T15:21:08.489Z,1.70
2018-02-05T15:23:41.261Z,1.60
2018-02-05T15:26:30.194Z,1.50
2018-02-05T15:29:18.245Z,1.50
2018-02-05T15:31:46.405Z,1.40
2018-02-05T15:34:14.567Z,1.40
2018-02-05T15:39:53.439Z,1.30
2018-02-05T15:42:24.784Z,1.20
2018-02-05T15:44:53.012Z,1.10
2018-02-05T16:03:20.368Z,0.70
2018-02-05T16:05:48.749Z,0.70
2018-02-05T16:08:17.094Z,0.60
2018-02-05T16:10:47.277Z,0.60
2018-02-05T16:13:17.261Z,0.60
2018-02-05T16:16:05.528Z,0.60
2018-02-05T16:18:34.377Z,0.60
2018-02-05T16:21:07.083Z,0.50
2018-02-05T16:26:47.120Z,0.40
2018-02-05T16:29:32.396Z,0.40
2018-02-05T16:35:11.192Z,0.30
2018-02-05T16:37:39.539Z,0.30
2018-02-05T16:40:13.703Z,0.30
2018-02-05T16:42:42.970Z,0.20
2018-02-05T16:45:11.152Z,0.10
2018-02-05T16:47:50.441Z,0.00
2018-02-05T16:50:22.194Z,0.00
2018-02-05T16:52:52.085Z,0.00
2018-02-05T16:55:21.926Z,-0.10
2018-02-05T16:58:02.736Z,-0.10
2018-02-05T17:06:51.405Z,0.20
2018-02-05T17:21:59.706Z,0.10
2018-02-05T17:24:32.137Z,-0.10
2018-02-05T17:27:03.531Z,-0.10
2018-02-05T17:33:00.185Z,-0.20
2018-02-05T17:35:29.353Z,-0.30
2018-02-05T17:38:18.126Z,-0.40
2018-02-05T17:40:47.173Z,-0.40
2018-02-05T17:43:15.535Z,-0.50
2018-02-05T17:45:43.746Z,-0.50
2018-02-05T17:48:16.515Z,-0.50
2018-02-05T17:50:57.363Z,-0.40
2018-02-05T17:59:36.494Z,-0.50
2018-02-05T18:05:06.231Z,-0.60
2018-02-05T18:07:34.734Z,-0.60
2018-02-05T18:10:22.553Z,-0.60
2018-02-05T18:15:33.356Z,-0.50
2018-02-05T18:20:55.628Z,-0.40
2018-02-05T18:23:24.202Z,-0.40
2018-02-05T18:25:52.421Z,-0.30
2018-02-05T18:28:20.868Z,-0.20
2018-02-05T18:30:54.093Z,-0.20
2018-02-05T18:33:38.485Z,-0.30
2018-02-05T18:39:18.375Z,-0.30
2018-02-05T18:41:46.912Z,-0.30
2018-02-05T18:44:15.094Z,-0.30
2018-02-05T18:46:46.911Z,-0.40
2018-02-05T18:49:15.073Z,-0.40
2018-02-05T18:51:43.151Z,-0.40
2018-02-05T18:54:17.027Z,-0.40
2018-02-05T18:56:45.867Z,-0.30
2018-02-05T18:59:18.430Z,-0.30
2018-02-05T19:02:02.997Z,-0.30
2018-02-05T19:04:38.505Z,-0.30
2018-02-05T19:07:08.104Z,-0.30
2018-02-05T19:09:38.180Z,-0.30
2018-02-05T19:12:22.922Z,-0.40
2018-02-05T19:14:53.261Z,-0.40
2018-02-05T19:17:26.775Z,-0.40
2018-02-05T19:20:00.311Z,-0.40
2018-02-05T19:22:33.318Z,-0.40
2018-02-05T19:25:01.659Z,-0.50
2018-02-05T19:27:30.777Z,-0.60
2018-02-05T19:30:20.404Z,-0.60
2018-02-05T19:32:48.536Z,-0.60
2018-02-05T19:35:19.381Z,-0.60
2018-02-05T19:37:47.481Z,-0.70
2018-02-05T19:40:18.650Z,-0.70
2018-02-05T19:42:50.655Z,-0.80
2018-02-05T19:45:24.102Z,-0.90
2018-02-05T19:47:53.259Z,-0.90
2018-02-05T19:50:21.612Z,-0.80
2018-02-05T19:52:57.181Z,-0.90
2018-02-05T19:55:25.326Z,-1.00
2018-02-05T19:57:55.522Z,-1.00
2018-02-05T20:00:24.510Z,-1.00
2018-02-05T20:02:52.709Z,-1.10
2018-02-05T20:05:20.907Z,-1.10
2018-02-05T20:07:53.632Z,-1.10
2018-02-05T20:13:15.950Z,-1.10
2018-02-05T20:15:55.050Z,-1.10
2018-02-05T20:18:25.060Z,-1.10
2018-02-05T20:20:53.171Z,-1.20
2018-02-05T20:23:26.718Z,-1.20
2018-02-05T20:26:05.165Z,-1.20
2018-02-05T20:28:37.039Z,-1.20
2018-02-05T20:31:28.541Z,-1.30
2018-02-05T20:33:57.399Z,-1.30
2018-02-05T20:36:30.772Z,-1.40
2018-02-05T20:39:03.637Z,-1.30
2018-02-05T20:41:38.316Z,-1.30
2018-02-05T20:44:12.439Z,-1.40
2018-02-05T20:46:41.472Z,-1.40
2018-02-05T20:49:13.241Z,-1.40
2018-02-05T20:51:48.846Z,-1.50
2018-02-05T20:54:17.851Z,-1.50
2018-02-05T20:56:47.654Z,-1.50
2018-02-05T20:59:15.804Z,-1.60
2018-02-05T21:01:44.026Z,-1.60
2018-02-05T21:04:13.026Z,-1.70
2018-02-05T21:06:43.145Z,-1.70
2018-02-05T21:09:14.112Z,-1.80
2018-02-05T21:11:47.959Z,-1.90
2018-02-05T21:14:21.707Z,-1.90
2018-02-05T21:16:49.975Z,-1.90
2018-02-05T21:19:23.680Z,-1.90
2018-02-05T21:21:52.635Z,-1.90
2018-02-05T21:24:20.804Z,-1.90
2018-02-05T21:26:49.450Z,-1.80
2018-02-05T21:29:17.607Z,-1.80
2018-02-05T21:31:47.841Z,-1.60
2018-02-05T21:34:24.893Z,-1.60
2018-02-05T21:36:53.950Z,-1.60
2018-02-05T21:39:30.468Z,-1.70
2018-02-05T21:42:02.498Z,-1.70
2018-02-05T21:44:31.827Z,-1.70
2018-02-05T21:46:59.955Z,-1.70
2018-02-05T21:49:32.246Z,-1.70
2018-02-05T21:52:00.582Z,-1.80
2018-02-05T21:54:30.810Z,-1.80
2018-02-05T21:56:58.915Z,-1.80
2018-02-05T21:59:29.076Z,-1.70
2018-02-05T22:02:01.779Z,-1.70
2018-02-05T22:04:31.803Z,-1.70
2018-02-05T22:06:59.890Z,-1.70
2018-02-05T22:09:28.027Z,-1.80
2018-02-05T22:11:58.158Z,-1.80
2018-02-05T22:14:38.948Z,-1.90
2018-02-05T22:17:19.106Z,-1.90
2018-02-05T22:19:54.891Z,-1.90
2018-02-05T22:22:23.014Z,-2.00
2018-02-05T22:24:54.431Z,-2.00
2018-02-05T22:27:29.415Z,-2.00
2018-02-05T22:30:04.276Z,-2.10
2018-02-05T22:32:38.893Z,-2.10
2018-02-05T22:35:07.968Z,-2.10
2018-02-05T22:40:51.018Z,-2.20
2018-02-05T22:43:21.090Z,-2.30
2018-02-05T22:45:49.236Z,-2.30
2018-02-05T22:48:18.331Z,-2.40
2018-02-05T22:50:46.439Z,-2.30
2018-02-05T22:53:16.271Z,-2.30
2018-02-05T22:55:46.036Z,-2.30
2018-02-05T22:58:19.113Z,-2.30
2018-02-05T23:00:48.030Z,-2.30
2018-02-05T23:03:16.586Z,-2.30
2018-02-05T23:05:44.766Z,-2.30
2018-02-05T23:08:30.903Z,-2.40
2018-02-05T23:11:02.040Z,-2.40
2018-02-05T23:13:30.944Z,-2.60
2018-02-05T23:16:01.344Z,-2.60
2018-02-05T23:18:33.133Z,-2.60
2018-02-05T23:21:01.271Z,-2.70
2018-02-05T23:23:34.372Z,-2.70
2018-02-05T23:26:16.668Z,-2.70
2018-02-05T23:28:45.118Z,-2.70
2018-02-05T23:31:24.438Z,-2.70
2018-02-05T23:33:54.479Z,-2.60
2018-02-05T23:36:30.510Z,-2.50
2018-02-05T23:38:58.955Z,-2.50
2018-02-05T23:41:31.707Z,-2.50
2018-02-05T23:47:05.509Z,-2.50
2018-02-05T23:49:34.096Z,-2.50
2018-02-05T23:52:06.071Z,-2.50
2018-02-05T23:54:36.095Z,-2.40
2018-02-05T23:57:06.099Z,-2.30
2018-02-05T23:59:35.860Z,-2.30
